Terminal Aerodrome Forecast
Issued by NWS

Home | Current Version | Previous Version | Graphics & Text | Print | Product List | Glossary On
Versions: 1 2 3 4 5 6 7 8 9 10 11 12 13 14 15 16 17 18 19 20 21
000
FTUS41 KCLE 230132 AAA
TAFFDY
TAF AMD
KFDY 230132Z 2302/2324 04010KT 2SM BR OVC002
     FM230700 04008KT 4SM BR OVC006
     FM231200 04010KT 3SM BR VCSH OVC004
     FM231700 03008KT 5SM -RA BR OVC006=

USA.gov is the U.S. government's official web portal to all federal, state and local government web resources and services.